createdAt,value
2018-04-12T00:02:22.377Z,272.27
2018-04-12T00:04:50.678Z,272.57
2018-04-12T00:07:18.204Z,276.27
2018-04-12T00:09:45.724Z,262.00
2018-04-12T00:12:13.257Z,285.33
2018-04-12T00:14:40.783Z,293.07
2018-04-12T00:17:08.309Z,290.23
2018-04-12T00:19:35.876Z,308.40
2018-04-12T00:22:03.526Z,304.80
2018-04-12T00:24:31.049Z,258.17
2018-04-12T00:26:59.361Z,305.97
2018-04-12T00:29:26.885Z,259.93
2018-04-12T00:31:55.173Z,306.33
2018-04-12T00:34:22.741Z,318.70
2018-04-12T00:36:50.319Z,360.67
2018-04-12T00:39:17.857Z,1066.80
2018-04-12T00:41:45.413Z,1752.43
2018-04-12T00:44:13.821Z,1728.43
2018-04-12T00:46:41.349Z,1999.90
2018-04-12T00:49:09.761Z,1823.63
2018-04-12T00:51:37.295Z,1784.70
2018-04-12T00:54:05.595Z,1662.67
2018-04-12T00:56:33.130Z,1956.57
2018-04-12T00:59:01.425Z,1786.63
2018-04-12T01:01:28.994Z,1732.83
2018-04-12T01:03:56.542Z,1990.50
2018-04-12T01:06:24.080Z,1943.30
2018-04-12T01:08:52.390Z,1907.57
2018-04-12T01:11:19.935Z,1796.47
2018-04-12T01:13:48.243Z,1999.90
2018-04-12T01:16:15.799Z,1999.90
2018-04-12T01:18:43.361Z,1999.90
2018-04-12T01:21:10.890Z,1938.80
2018-04-12T01:23:39.198Z,984.83
2018-04-12T01:26:06.758Z,1534.43
2018-04-12T01:28:34.302Z,1311.27
2018-04-12T01:31:01.882Z,1152.30
2018-04-12T01:33:29.436Z,1187.23
2018-04-12T01:35:56.970Z,1406.13
2018-04-12T01:38:25.279Z,196.43
2018-04-12T01:40:52.836Z,173.27
2018-04-12T01:43:20.403Z,351.23
2018-04-12T01:45:47.959Z,166.47
2018-04-12T01:48:15.517Z,368.77
2018-04-12T01:50:43.043Z,258.90
2018-04-12T01:53:11.381Z,257.50
2018-04-12T01:55:38.945Z,204.07
2018-04-12T01:58:06.480Z,175.23
2018-04-12T02:00:34.035Z,115.20
2018-04-12T02:03:01.586Z,132.07
2018-04-12T02:05:29.165Z,138.77
2018-04-12T02:07:56.697Z,104.40
2018-04-12T02:10:25.107Z,92.73
2018-04-12T02:12:52.644Z,90.27
2018-04-12T02:15:20.235Z,72.93
2018-04-12T02:17:47.790Z,93.30
2018-04-12T02:20:15.350Z,92.07
2018-04-12T02:22:42.920Z,82.90
2018-04-12T02:25:10.472Z,60.33
2018-04-12T02:27:38.034Z,66.27
2018-04-12T02:30:05.570Z,155.07
2018-04-12T02:32:33.255Z,102.20
2018-04-12T02:35:00.793Z,767.57
2018-04-12T02:37:28.339Z,132.03
2018-04-12T02:39:56.641Z,71.27
2018-04-12T02:42:24.215Z,110.93
2018-04-12T02:44:51.772Z,198.27
2018-04-12T02:47:19.333Z,88.23
2018-04-12T02:49:46.871Z,96.73
2018-04-12T02:52:15.163Z,78.23
2018-04-12T02:54:42.735Z,71.50
2018-04-12T02:57:10.296Z,72.33
2018-04-12T02:59:37.816Z,81.70
2018-04-12T03:02:06.121Z,66.87
2018-04-12T03:04:33.698Z,76.00
2018-04-12T03:07:01.230Z,84.13
2018-04-12T03:09:29.670Z,83.17
2018-04-12T03:11:57.210Z,73.40
2018-04-12T03:14:24.752Z,75.90
2018-04-12T03:16:52.289Z,60.27
2018-04-12T03:19:20.587Z,78.03
2018-04-12T03:21:48.117Z,222.03
2018-04-12T03:24:16.436Z,134.27
2018-04-12T03:26:43.957Z,227.90
2018-04-12T03:29:12.246Z,291.63
2018-04-12T03:31:40.552Z,344.93
2018-04-12T03:34:08.079Z,176.13
2018-04-12T03:36:36.389Z,207.80
2018-04-12T03:39:03.931Z,143.63
2018-04-12T03:41:31.477Z,147.40
2018-04-12T03:43:59.783Z,134.07
2018-04-12T03:46:27.340Z,88.37
2018-04-12T03:48:54.868Z,122.97
2018-04-12T03:51:23.186Z,261.67
2018-04-12T03:53:50.727Z,106.07
2018-04-12T03:56:19.037Z,459.00
2018-04-12T03:58:46.594Z,474.13
2018-04-12T04:01:14.122Z,455.03
2018-04-12T04:03:42.423Z,243.77
2018-04-12T04:06:09.952Z,304.87
2018-04-12T04:08:38.276Z,540.33
2018-04-12T04:11:05.934Z,877.93
2018-04-12T04:13:33.480Z,1032.27
2018-04-12T04:16:12.932Z,1049.43
2018-04-12T04:18:52.089Z,1075.53
2018-04-12T04:21:19.721Z,1320.53
2018-04-12T04:23:47.248Z,1195.90
2018-04-12T04:26:15.548Z,1425.77
2018-04-12T04:28:43.120Z,1519.93
2018-04-12T04:31:10.681Z,1506.33
2018-04-12T04:33:38.208Z,1669.13
2018-04-12T04:36:06.537Z,1674.27
2018-04-12T04:38:34.189Z,1958.40
2018-04-12T04:41:01.754Z,1919.63
2018-04-12T04:43:29.407Z,1932.47
2018-04-12T04:45:56.948Z,1991.47
2018-04-12T04:48:25.236Z,1992.53
2018-04-12T04:50:52.790Z,1994.10
2018-04-12T04:53:20.320Z,1917.07
2018-04-12T04:55:47.845Z,1999.90
2018-04-12T04:58:15.392Z,1999.90
2018-04-12T05:00:42.928Z,1999.90
2018-04-12T05:03:10.463Z,1858.90
2018-04-12T05:05:39.520Z,1869.33
2018-04-12T05:08:07.065Z,1830.60
2018-04-12T05:10:34.612Z,1869.20
2018-04-12T05:13:02.170Z,1999.90
2018-04-12T05:15:29.812Z,1999.90
2018-04-12T05:17:57.297Z,1999.90
2018-04-12T05:20:24.888Z,1915.03
2018-04-12T05:22:52.423Z,1915.50
2018-04-12T05:25:19.958Z,1999.90
2018-04-12T05:27:48.315Z,1917.50
2018-04-12T05:30:15.824Z,1999.90
2018-04-12T05:32:43.371Z,1999.90
2018-04-12T05:35:10.940Z,1997.90
2018-04-12T05:37:38.472Z,1780.87
2018-04-12T05:40:06.780Z,1959.10
2018-04-12T05:42:34.325Z,1802.03
2018-04-12T05:45:02.629Z,1823.57
2018-04-12T05:47:30.163Z,1951.17
2018-04-12T05:49:58.503Z,1612.53
2018-04-12T05:52:26.042Z,1504.87
2018-04-12T05:54:53.574Z,1409.60
2018-04-12T05:57:21.129Z,1126.77
2018-04-12T05:59:48.721Z,1298.20
2018-04-12T06:02:16.275Z,1340.73
2018-04-12T06:04:43.827Z,1465.07
2018-04-12T06:07:11.367Z,1520.70
2018-04-12T06:09:39.681Z,1529.87
2018-04-12T06:12:07.243Z,1333.60
2018-04-12T06:14:34.777Z,1280.90
2018-04-12T06:17:02.326Z,826.13
2018-04-12T06:19:30.837Z,740.37
2018-04-12T06:21:58.495Z,561.73
2018-04-12T06:24:26.062Z,674.63
2018-04-12T06:26:53.616Z,670.13
2018-04-12T06:29:21.150Z,675.80
2018-04-12T06:31:49.558Z,594.27
2018-04-12T06:34:17.098Z,594.47
2018-04-12T06:36:44.635Z,491.33
2018-04-12T06:39:13.057Z,545.50
2018-04-12T06:41:40.718Z,554.00
2018-04-12T06:44:08.263Z,585.27
2018-04-12T06:46:35.806Z,584.43
2018-04-12T06:49:04.115Z,552.33
2018-04-12T06:51:31.668Z,514.60
2018-04-12T06:53:59.264Z,374.70
2018-04-12T06:56:26.893Z,411.03
2018-04-12T06:58:54.433Z,379.00
2018-04-12T07:01:22.831Z,418.93
2018-04-12T07:03:50.377Z,369.50
2018-04-12T07:06:17.917Z,326.00
2018-04-12T07:08:46.218Z,355.83
2018-04-12T07:11:13.776Z,299.40
2018-04-12T07:13:41.304Z,301.13
2018-04-12T07:16:10.343Z,314.17
2018-04-12T07:18:37.928Z,285.77
2018-04-12T07:21:05.462Z,267.87
2018-04-12T07:23:33.137Z,257.93
2018-04-12T07:26:00.712Z,237.97
2018-04-12T07:28:28.354Z,253.67
2018-04-12T07:30:55.896Z,244.40
2018-04-12T07:33:23.464Z,253.47
2018-04-12T07:35:51.012Z,220.77
2018-04-12T07:38:18.573Z,241.00
2018-04-12T07:40:46.134Z,228.33
2018-04-12T07:43:13.688Z,212.40
2018-04-12T07:45:41.245Z,220.30
2018-04-12T07:48:09.549Z,199.53
2018-04-12T07:50:37.166Z,192.63
2018-04-12T07:53:04.731Z,191.70
2018-04-12T07:55:33.155Z,188.53
2018-04-12T07:58:00.726Z,192.27
2018-04-12T08:00:28.381Z,186.50
2018-04-12T08:02:55.930Z,190.23
2018-04-12T08:05:23.466Z,199.43
2018-04-12T08:07:51.774Z,207.97
2018-04-12T08:10:19.388Z,203.77
2018-04-12T08:12:47.698Z,220.53
2018-04-12T08:15:15.242Z,241.43
2018-04-12T08:17:43.556Z,224.07
2018-04-12T08:20:11.092Z,220.63
2018-04-12T08:22:38.628Z,217.70
2018-04-12T08:25:06.964Z,204.70
2018-04-12T08:27:34.549Z,204.57
2018-04-12T08:30:02.092Z,189.90
2018-04-12T08:32:29.644Z,177.30
2018-04-12T08:34:57.180Z,164.97
2018-04-12T08:37:24.714Z,159.87
2018-04-12T08:39:53.027Z,153.37
2018-04-12T08:42:20.574Z,159.83
2018-04-12T08:44:48.115Z,152.13
2018-04-12T08:47:16.425Z,157.67
2018-04-12T08:49:43.961Z,159.90
2018-04-12T08:52:11.502Z,151.33
2018-04-12T08:54:39.831Z,127.23
2018-04-12T08:57:07.369Z,126.27
2018-04-12T08:59:34.953Z,134.87
2018-04-12T09:02:02.498Z,121.00
2018-04-12T09:04:30.049Z,117.80
2018-04-12T09:06:57.597Z,119.40
2018-04-12T09:09:25.937Z,126.03
2018-04-12T09:11:53.477Z,115.20
2018-04-12T09:14:21.003Z,123.67
2018-04-12T09:16:48.549Z,114.33
2018-04-12T09:19:16.968Z,111.67
2018-04-12T09:21:44.507Z,110.57
2018-04-12T09:24:12.050Z,119.23
2018-04-12T09:26:40.364Z,112.93
2018-04-12T09:29:07.918Z,108.57
2018-04-12T09:31:35.454Z,107.43
2018-04-12T09:34:03.751Z,111.80
2018-04-12T09:36:31.290Z,110.73
2018-04-12T09:38:59.595Z,119.37
2018-04-12T09:41:27.122Z,143.27
2018-04-12T09:43:55.427Z,137.20
2018-04-12T09:46:22.986Z,139.13
2018-04-12T09:48:50.526Z,117.83
2018-04-12T09:51:18.839Z,129.20
2018-04-12T09:53:46.380Z,126.03
2018-04-12T09:56:13.952Z,115.53
2018-04-12T09:58:41.476Z,96.70
2018-04-12T10:01:15.870Z,85.37
2018-04-12T10:03:44.310Z,84.17
2018-04-12T10:06:17.476Z,90.10
2018-04-12T10:11:43.739Z,93.33
2018-04-12T10:14:11.271Z,87.67
2018-04-12T10:16:39.588Z,91.43
2018-04-12T10:19:07.132Z,96.07
2018-04-12T10:21:34.666Z,75.93
2018-04-12T10:24:02.972Z,93.33
2018-04-12T10:26:30.946Z,88.47
2018-04-12T10:28:58.482Z,87.37
2018-04-12T10:31:26.778Z,98.07
2018-04-12T10:33:54.316Z,89.93
2018-04-12T10:36:22.750Z,100.97
2018-04-12T10:38:50.299Z,102.67
2018-04-12T10:41:17.846Z,106.10
2018-04-12T10:43:45.443Z,111.60
2018-04-12T10:46:12.982Z,107.83
2018-04-12T10:48:40.528Z,107.40
2018-04-12T10:51:08.056Z,109.93
2018-04-12T10:53:36.357Z,117.07
2018-04-12T10:56:03.910Z,116.07
2018-04-12T10:58:32.199Z,108.37
2018-04-12T11:00:59.773Z,116.43
2018-04-12T11:03:27.366Z,115.07
2018-04-12T11:05:54.876Z,118.17
2018-04-12T11:08:22.419Z,116.67
2018-04-12T11:10:50.832Z,123.07
2018-04-12T11:13:18.493Z,121.33
2018-04-12T11:15:46.041Z,127.80
2018-04-12T11:18:13.777Z,129.13
2018-04-12T11:20:41.267Z,125.10
2018-04-12T11:23:08.823Z,116.83
2018-04-12T11:25:36.385Z,107.93
2018-04-12T11:28:03.968Z,106.23
2018-04-12T11:30:31.511Z,104.70
2018-04-12T11:32:59.073Z,100.53
2018-04-12T11:35:26.603Z,103.10
2018-04-12T11:37:54.159Z,103.87
2018-04-12T11:40:22.605Z,95.83
2018-04-12T11:42:50.189Z,100.07
2018-04-12T11:45:17.703Z,96.10
2018-04-12T11:47:45.239Z,100.50
2018-04-12T11:50:12.774Z,93.17
2018-04-12T11:52:41.067Z,93.43
2018-04-12T11:55:09.385Z,97.50
2018-04-12T11:57:36.917Z,95.20
2018-04-12T12:00:04.442Z,91.97
2018-04-12T12:02:32.048Z,96.27
2018-04-12T12:04:59.602Z,95.10
2018-04-12T12:07:27.134Z,100.57
2018-04-12T12:09:55.446Z,101.70
2018-04-12T12:12:23.016Z,98.20
2018-04-12T12:14:50.543Z,108.90
2018-04-12T12:17:18.844Z,102.83
2018-04-12T12:19:46.386Z,113.67
2018-04-12T12:22:13.925Z,110.33
2018-04-12T12:24:42.250Z,122.80
2018-04-12T12:27:09.779Z,119.63
2018-04-12T12:29:38.085Z,114.80
2018-04-12T12:32:05.638Z,103.97
2018-04-12T12:34:33.172Z,114.97
2018-04-12T12:37:01.481Z,117.90
2018-04-12T12:39:29.034Z,103.97
2018-04-12T12:41:56.572Z,111.73
2018-04-12T12:44:24.873Z,117.50
2018-04-12T12:46:52.438Z,118.43
2018-04-12T12:49:19.987Z,112.30
2018-04-12T12:51:47.528Z,109.43
2018-04-12T12:54:15.846Z,112.23
2018-04-12T12:56:43.384Z,111.03
2018-04-12T12:59:10.958Z,115.77
2018-04-12T13:01:38.496Z,107.10
2018-04-12T13:04:06.021Z,116.63
2018-04-12T13:06:33.655Z,114.97
2018-04-12T13:09:01.205Z,105.67
2018-04-12T13:11:28.735Z,102.90
2018-04-12T13:13:56.317Z,106.20
2018-04-12T13:16:23.859Z,104.17
2018-04-12T13:18:52.155Z,114.23
2018-04-12T13:21:19.680Z,104.43
2018-04-12T13:23:48.005Z,108.53
2018-04-12T13:26:15.536Z,102.70
2018-04-12T13:28:43.066Z,104.53
2018-04-12T13:31:11.392Z,98.87
2018-04-12T13:33:38.945Z,106.27
2018-04-12T13:36:06.508Z,108.43
2018-04-12T13:38:34.068Z,112.10
2018-04-12T13:41:01.606Z,101.83
2018-04-12T13:43:29.155Z,102.50
2018-04-12T13:45:57.475Z,93.47
2018-04-12T13:48:25.031Z,96.53
2018-04-12T13:50:52.568Z,92.07
2018-04-12T13:53:20.126Z,99.73
2018-04-12T13:55:47.674Z,86.37
2018-04-12T13:58:15.981Z,87.73
2018-04-12T14:00:43.530Z,92.67
2018-04-12T14:03:11.068Z,98.20
2018-04-12T14:05:38.615Z,88.67
2018-04-12T14:08:06.154Z,87.60
2018-04-12T14:10:33.760Z,91.80
2018-04-12T14:13:02.064Z,87.20
2018-04-12T14:15:29.649Z,86.23
2018-04-12T14:17:57.292Z,88.17
2018-04-12T14:20:24.917Z,92.63
2018-04-12T14:22:53.215Z,87.37
2018-04-12T14:25:20.741Z,86.17
2018-04-12T14:27:49.071Z,89.73
2018-04-12T14:30:16.611Z,83.33
2018-04-12T14:32:44.131Z,77.03
2018-04-12T14:35:11.673Z,89.27
2018-04-12T14:37:39.229Z,86.20
2018-04-12T14:40:06.781Z,88.17
2018-04-12T14:42:34.327Z,86.90
2018-04-12T14:45:01.867Z,82.17
2018-04-12T14:47:29.413Z,93.07
2018-04-12T14:49:57.001Z,87.00
2018-04-12T14:52:24.559Z,85.43
2018-04-12T14:54:52.135Z,89.07
2018-04-12T14:57:19.757Z,83.17
2018-04-12T14:59:48.193Z,85.40
2018-04-12T15:02:15.824Z,87.67
2018-04-12T15:04:43.389Z,85.90
2018-04-12T15:07:10.934Z,85.90
2018-04-12T15:09:38.523Z,87.40
2018-04-12T15:12:09.573Z,85.53
2018-04-12T15:14:38.025Z,89.17
2018-04-12T15:17:05.560Z,89.43
2018-04-12T15:19:33.859Z,91.93
2018-04-12T15:22:01.410Z,93.80
2018-04-12T15:24:28.947Z,84.20
2018-04-12T15:26:57.252Z,91.33
2018-04-12T15:29:24.775Z,93.03
2018-04-12T15:31:52.306Z,86.50
2018-04-12T15:34:19.852Z,90.40
2018-04-12T15:36:47.407Z,90.70
2018-04-12T15:39:14.976Z,88.87
2018-04-12T15:41:43.255Z,89.93
2018-04-12T15:44:10.800Z,91.57
2018-04-12T15:46:38.402Z,87.77
2018-04-12T15:49:05.912Z,87.17
2018-04-12T15:51:33.459Z,84.80
2018-04-12T15:54:01.073Z,84.67
2018-04-12T15:56:28.723Z,85.53
2018-04-12T15:58:56.266Z,84.77
2018-04-12T16:01:23.881Z,87.63
2018-04-12T16:03:51.478Z,86.23
2018-04-12T16:06:19.032Z,80.87
2018-04-12T16:08:46.630Z,85.57
2018-04-12T16:11:14.164Z,84.33
2018-04-12T16:13:41.700Z,81.33
2018-04-12T16:16:09.992Z,84.40
2018-04-12T16:18:37.532Z,83.30
2018-04-12T16:21:05.875Z,86.80
2018-04-12T16:23:33.512Z,82.13
2018-04-12T16:26:01.044Z,81.87
2018-04-12T16:28:28.617Z,79.93
2018-04-12T16:30:56.125Z,86.27
2018-04-12T16:33:23.649Z,82.50
2018-04-12T16:35:51.184Z,78.30
2018-04-12T16:38:18.723Z,83.47
2018-04-12T16:40:47.029Z,83.67
2018-04-12T16:43:14.561Z,81.10
2018-04-12T16:45:42.875Z,84.60
2018-04-12T16:48:10.398Z,84.63
2018-04-12T16:50:38.717Z,84.90
2018-04-12T16:53:06.278Z,75.67
2018-04-12T16:55:33.819Z,80.07
2018-04-12T16:58:01.345Z,80.47
2018-04-12T17:00:28.878Z,85.83
2018-04-12T17:02:56.456Z,84.77
2018-04-12T17:05:23.994Z,81.57
2018-04-12T17:07:51.527Z,78.77
2018-04-12T17:10:19.051Z,88.20
2018-04-12T17:12:47.371Z,81.80
2018-04-12T17:15:14.908Z,86.93
2018-04-12T17:17:43.205Z,87.63
2018-04-12T17:20:10.747Z,81.00
2018-04-12T17:22:38.285Z,85.87
2018-04-12T17:25:06.577Z,85.53
2018-04-12T17:27:34.895Z,84.03
2018-04-12T17:30:02.431Z,95.83
2018-04-12T17:32:29.970Z,85.47
2018-04-12T17:34:58.285Z,86.13
2018-04-12T17:37:25.808Z,81.67
2018-04-12T17:39:54.122Z,87.77
2018-04-12T17:42:21.658Z,92.67
2018-04-12T17:44:49.189Z,90.60
2018-04-12T17:47:16.744Z,90.13
2018-04-12T17:49:44.304Z,90.90
2018-04-12T17:52:11.845Z,94.07
2018-04-12T17:54:39.455Z,88.30
2018-04-12T17:57:07.764Z,84.30
2018-04-12T17:59:35.289Z,94.47
2018-04-12T18:02:03.601Z,88.13
2018-04-12T18:04:31.153Z,87.60
2018-04-12T18:06:58.720Z,87.23
2018-04-12T18:09:26.292Z,87.83
2018-04-12T18:11:53.931Z,91.57
2018-04-12T18:14:21.471Z,86.83
2018-04-12T18:16:49.777Z,86.00
2018-04-12T18:19:17.327Z,83.57
2018-04-12T18:21:44.866Z,86.33
2018-04-12T18:24:13.276Z,92.70
2018-04-12T18:26:40.834Z,95.33
2018-04-12T18:29:08.369Z,97.27
2018-04-12T18:31:36.655Z,95.23
2018-04-12T18:34:04.206Z,93.93
2018-04-12T18:36:32.606Z,93.80
2018-04-12T18:39:00.158Z,93.67
2018-04-12T18:41:27.730Z,92.67
2018-04-12T18:43:55.268Z,93.57
2018-04-12T18:46:22.838Z,99.93
2018-04-12T18:48:51.126Z,104.00
2018-04-12T18:51:18.655Z,98.57
2018-04-12T18:53:47.001Z,110.37
2018-04-12T18:56:14.550Z,105.00
2018-04-12T18:58:42.201Z,110.90
2018-04-12T19:01:09.738Z,95.47
2018-04-12T19:03:37.297Z,93.87
2018-04-12T19:06:04.836Z,90.90
2018-04-12T19:08:33.143Z,97.83
2018-04-12T19:11:00.816Z,101.27
2018-04-12T19:13:28.391Z,94.43
2018-04-12T19:15:55.929Z,103.53
2018-04-12T19:18:23.511Z,99.83
2018-04-12T19:20:51.078Z,100.60
2018-04-12T19:25:51.709Z,101.00
2018-04-12T19:28:19.264Z,100.50
2018-04-12T19:30:46.789Z,95.37
2018-04-12T19:33:15.126Z,102.50
2018-04-12T19:35:42.672Z,99.73
2018-04-12T19:38:10.226Z,102.03
2018-04-12T19:40:37.882Z,100.60
2018-04-12T19:43:05.422Z,100.63
2018-04-12T19:45:32.947Z,101.87
2018-04-12T19:48:01.266Z,105.63
2018-04-12T19:50:28.802Z,104.13
2018-04-12T19:52:57.107Z,106.90
2018-04-12T19:55:24.673Z,102.57
2018-04-12T19:57:52.249Z,105.50
2018-04-12T20:00:19.793Z,114.23
2018-04-12T20:02:47.392Z,111.17
2018-04-12T20:05:14.922Z,110.30
2018-04-12T20:07:42.495Z,110.17
2018-04-12T20:10:10.056Z,109.63
2018-04-12T20:12:37.583Z,112.07
2018-04-12T20:15:05.132Z,100.33
2018-04-12T20:17:32.706Z,104.20
2018-04-12T20:20:00.287Z,109.57
2018-04-12T20:22:27.816Z,108.07
2018-04-12T20:24:55.357Z,107.50
2018-04-12T20:27:23.687Z,112.43
2018-04-12T20:29:51.227Z,117.00
2018-04-12T20:32:18.760Z,115.60
2018-04-12T20:34:47.065Z,109.57
2018-04-12T20:37:14.608Z,111.40
2018-04-12T20:39:42.157Z,113.57
2018-04-12T20:42:10.482Z,113.87
2018-04-12T20:44:38.018Z,114.93
2018-04-12T20:47:05.570Z,113.43
2018-04-12T20:49:33.104Z,98.67
2018-04-12T20:52:01.414Z,107.00
2018-04-12T20:54:29.017Z,107.43
2018-04-12T20:56:56.536Z,99.17
2018-04-12T20:59:24.198Z,94.27
2018-04-12T21:01:51.744Z,98.63
2018-04-12T21:04:20.061Z,102.77
2018-04-12T21:06:47.593Z,104.47
2018-04-12T21:09:15.126Z,102.30
2018-04-12T21:11:43.420Z,101.17
2018-04-12T21:14:11.925Z,101.20
2018-04-12T21:16:39.639Z,98.47
2018-04-12T21:19:07.180Z,102.07
2018-04-12T21:21:34.714Z,103.53
2018-04-12T21:24:02.263Z,104.97
2018-04-12T21:26:29.805Z,99.70
2018-04-12T21:28:58.100Z,93.53
2018-04-12T21:31:25.645Z,98.67
2018-04-12T21:33:53.170Z,96.03
2018-04-12T21:36:20.798Z,97.30
2018-04-12T21:38:48.330Z,97.57
2018-04-12T21:41:15.869Z,95.87
2018-04-12T21:43:44.169Z,97.17
2018-04-12T21:46:11.716Z,97.10
2018-04-12T21:48:40.017Z,95.47
2018-04-12T21:51:07.558Z,101.70
2018-04-12T21:53:35.961Z,103.73
2018-04-12T21:56:03.493Z,104.87
2018-04-12T21:58:31.792Z,102.73
2018-04-12T22:00:59.344Z,103.50
2018-04-12T22:03:26.921Z,102.93
2018-04-12T22:05:54.463Z,104.73
2018-04-12T22:08:22.008Z,101.37
2018-04-12T22:10:50.304Z,98.87
2018-04-12T22:13:17.836Z,106.37
2018-04-12T22:15:46.147Z,106.70
2018-04-12T22:18:13.682Z,101.23
2018-04-12T22:20:41.990Z,102.90
2018-04-12T22:23:09.539Z,97.80
2018-04-12T22:25:37.068Z,104.57
2018-04-12T22:28:05.382Z,105.67
2018-04-12T22:30:32.945Z,101.07
2018-04-12T22:33:00.474Z,106.50
2018-04-12T22:35:28.782Z,112.47
2018-04-12T22:37:56.350Z,111.33
2018-04-12T22:40:23.881Z,113.97
2018-04-12T22:42:51.414Z,112.07
2018-04-12T22:45:18.975Z,107.70
2018-04-12T22:47:46.516Z,100.10
2018-04-12T22:50:14.046Z,98.40
2018-04-12T22:52:41.601Z,100.73
2018-04-12T22:55:09.162Z,106.07
2018-04-12T22:57:36.736Z,105.60
2018-04-12T23:00:04.283Z,107.03
2018-04-12T23:02:31.813Z,115.83
2018-04-12T23:05:00.111Z,115.10
2018-04-12T23:07:27.694Z,111.20
2018-04-12T23:09:55.221Z,113.97
2018-04-12T23:12:23.527Z,119.93
2018-04-12T23:14:51.071Z,112.53
2018-04-12T23:17:18.645Z,121.47
2018-04-12T23:19:46.183Z,124.67
2018-04-12T23:22:13.725Z,119.70
2018-04-12T23:24:42.041Z,127.03
2018-04-12T23:27:09.569Z,118.50
2018-04-12T23:29:37.881Z,118.57
2018-04-12T23:32:05.412Z,120.87
2018-04-12T23:34:33.707Z,119.53
2018-04-12T23:37:01.502Z,116.87
2018-04-12T23:39:29.042Z,122.93
2018-04-12T23:41:56.783Z,130.97
2018-04-12T23:44:25.099Z,137.80
2018-04-12T23:46:52.649Z,142.20
2018-04-12T23:49:20.177Z,143.90
2018-04-12T23:51:48.485Z,129.87
2018-04-12T23:54:16.016Z,137.00
2018-04-12T23:56:44.429Z,142.83
2018-04-12T23:59:11.975Z,128.00
